sensor_id;sensor_type;location;lat;lon;timestamp;P1;durP1;ratioP1;P2;durP2;ratioP2
17650;SDS011;26663;59.302;18.082;2023-08-12T00:01:01;2.33;;;2.13;;
17650;SDS011;26663;59.302;18.082;2023-08-12T00:04:06;4.80;;;2.67;;
17650;SDS011;26663;59.302;18.082;2023-08-12T00:07:09;3.00;;;2.30;;
17650;SDS011;26663;59.302;18.082;2023-08-12T00:10:14;3.85;;;2.40;;
17650;SDS011;26663;59.302;18.082;2023-08-12T00:13:19;5.72;;;3.55;;
17650;SDS011;26663;59.302;18.082;2023-08-12T00:16:24;4.30;;;2.50;;
17650;SDS011;26663;59.302;18.082;2023-08-12T00:19:28;7.70;;;2.75;;
17650;SDS011;26663;59.302;18.082;2023-08-12T00:22:32;4.72;;;2.58;;
17650;SDS011;26663;59.302;18.082;2023-08-12T00:25:36;2.80;;;2.60;;
17650;SDS011;26663;59.302;18.082;2023-08-12T00:28:40;5.07;;;3.05;;
17650;SDS011;26663;59.302;18.082;2023-08-12T00:31:45;10.00;;;2.60;;
17650;SDS011;26663;59.302;18.082;2023-08-12T00:34:49;6.85;;;2.80;;
17650;SDS011;26663;59.302;18.082;2023-08-12T00:37:53;3.72;;;2.50;;
17650;SDS011;26663;59.302;18.082;2023-08-12T00:40:57;3.80;;;2.55;;
17650;SDS011;26663;59.302;18.082;2023-08-12T00:44:01;7.22;;;2.70;;
17650;SDS011;26663;59.302;18.082;2023-08-12T00:47:06;3.13;;;2.80;;
17650;SDS011;26663;59.302;18.082;2023-08-12T00:50:12;3.22;;;2.90;;
17650;SDS011;26663;59.302;18.082;2023-08-12T00:53:17;3.58;;;2.38;;
17650;SDS011;26663;59.302;18.082;2023-08-12T00:56:21;5.18;;;3.00;;
17650;SDS011;26663;59.302;18.082;2023-08-12T00:59:25;5.10;;;3.03;;
17650;SDS011;26663;59.302;18.082;2023-08-12T01:02:30;7.65;;;3.50;;
17650;SDS011;26663;59.302;18.082;2023-08-12T01:05:34;7.40;;;3.47;;
17650;SDS011;26663;59.302;18.082;2023-08-12T01:08:44;4.43;;;3.33;;
17650;SDS011;26663;59.302;18.082;2023-08-12T01:11:49;5.55;;;3.35;;
17650;SDS011;26663;59.302;18.082;2023-08-12T01:14:56;4.70;;;3.35;;
17650;SDS011;26663;59.302;18.082;2023-08-12T01:18:04;4.57;;;3.38;;
17650;SDS011;26663;59.302;18.082;2023-08-12T01:21:10;5.45;;;3.30;;
17650;SDS011;26663;59.302;18.082;2023-08-12T01:24:20;5.88;;;3.15;;
17650;SDS011;26663;59.302;18.082;2023-08-12T01:27:24;6.68;;;3.30;;
17650;SDS011;26663;59.302;18.082;2023-08-12T01:30:28;4.53;;;2.85;;
17650;SDS011;26663;59.302;18.082;2023-08-12T01:33:34;2.50;;;2.40;;
17650;SDS011;26663;59.302;18.082;2023-08-12T01:36:46;2.60;;;2.47;;
17650;SDS011;26663;59.302;18.082;2023-08-12T01:39:58;2.85;;;2.40;;
17650;SDS011;26663;59.302;18.082;2023-08-12T01:43:03;2.50;;;2.30;;
17650;SDS011;26663;59.302;18.082;2023-08-12T01:46:10;3.10;;;2.35;;
17650;SDS011;26663;59.302;18.082;2023-08-12T01:49:14;5.53;;;2.63;;
17650;SDS011;26663;59.302;18.082;2023-08-12T01:52:18;6.25;;;2.78;;
17650;SDS011;26663;59.302;18.082;2023-08-12T01:55:23;2.75;;;2.53;;
17650;SDS011;26663;59.302;18.082;2023-08-12T01:58:27;7.07;;;2.25;;
17650;SDS011;26663;59.302;18.082;2023-08-12T02:01:31;4.72;;;2.78;;
17650;SDS011;26663;59.302;18.082;2023-08-12T02:04:36;2.85;;;2.50;;
17650;SDS011;26663;59.302;18.082;2023-08-12T02:07:41;2.63;;;2.42;;
17650;SDS011;26663;59.302;18.082;2023-08-12T02:10:46;5.40;;;2.72;;
17650;SDS011;26663;59.302;18.082;2023-08-12T02:13:50;4.90;;;2.40;;
17650;SDS011;26663;59.302;18.082;2023-08-12T02:16:54;2.50;;;2.30;;
17650;SDS011;26663;59.302;18.082;2023-08-12T02:19:58;4.30;;;3.17;;
17650;SDS011;26663;59.302;18.082;2023-08-12T02:23:04;2.92;;;2.42;;
17650;SDS011;26663;59.302;18.082;2023-08-12T02:26:10;4.53;;;2.80;;
17650;SDS011;26663;59.302;18.082;2023-08-12T02:29:13;3.08;;;2.50;;
17650;SDS011;26663;59.302;18.082;2023-08-12T02:32:17;4.25;;;2.53;;
17650;SDS011;26663;59.302;18.082;2023-08-12T02:35:21;3.00;;;2.70;;
17650;SDS011;26663;59.302;18.082;2023-08-12T02:38:25;3.63;;;2.70;;
17650;SDS011;26663;59.302;18.082;2023-08-12T02:41:30;6.63;;;3.15;;
17650;SDS011;26663;59.302;18.082;2023-08-12T02:44:35;2.95;;;2.70;;
17650;SDS011;26663;59.302;18.082;2023-08-12T02:47:38;2.65;;;2.55;;
17650;SDS011;26663;59.302;18.082;2023-08-12T02:50:42;3.13;;;2.70;;
17650;SDS011;26663;59.302;18.082;2023-08-12T02:53:46;4.93;;;3.03;;
17650;SDS011;26663;59.302;18.082;2023-08-12T02:56:51;5.15;;;2.20;;
17650;SDS011;26663;59.302;18.082;2023-08-12T02:59:55;3.20;;;2.90;;
17650;SDS011;26663;59.302;18.082;2023-08-12T03:02:59;2.70;;;2.50;;
17650;SDS011;26663;59.302;18.082;2023-08-12T03:06:03;2.38;;;2.17;;
17650;SDS011;26663;59.302;18.082;2023-08-12T03:09:07;2.33;;;2.20;;
17650;SDS011;26663;59.302;18.082;2023-08-12T03:12:12;2.58;;;2.30;;
17650;SDS011;26663;59.302;18.082;2023-08-12T03:15:16;2.22;;;2.10;;
17650;SDS011;26663;59.302;18.082;2023-08-12T03:18:20;2.40;;;2.10;;
17650;SDS011;26663;59.302;18.082;2023-08-12T03:21:24;2.75;;;2.30;;
17650;SDS011;26663;59.302;18.082;2023-08-12T03:24:28;2.78;;;2.10;;
17650;SDS011;26663;59.302;18.082;2023-08-12T03:27:33;2.05;;;1.92;;
17650;SDS011;26663;59.302;18.082;2023-08-12T03:30:38;2.22;;;1.95;;
17650;SDS011;26663;59.302;18.082;2023-08-12T03:33:43;4.10;;;2.20;;
17650;SDS011;26663;59.302;18.082;2023-08-12T03:36:48;2.00;;;1.90;;
17650;SDS011;26663;59.302;18.082;2023-08-12T03:39:54;5.07;;;2.47;;
17650;SDS011;26663;59.302;18.082;2023-08-12T03:42:59;2.22;;;2.13;;
17650;SDS011;26663;59.302;18.082;2023-08-12T03:46:03;5.10;;;2.30;;
17650;SDS011;26663;59.302;18.082;2023-08-12T03:49:07;2.03;;;1.92;;
17650;SDS011;26663;59.302;18.082;2023-08-12T03:52:11;2.35;;;2.20;;
17650;SDS011;26663;59.302;18.082;2023-08-12T03:55:14;2.20;;;2.00;;
17650;SDS011;26663;59.302;18.082;2023-08-12T03:58:20;2.55;;;2.35;;
17650;SDS011;26663;59.302;18.082;2023-08-12T04:01:24;2.10;;;2.00;;
17650;SDS011;26663;59.302;18.082;2023-08-12T04:04:28;3.30;;;2.00;;
17650;SDS011;26663;59.302;18.082;2023-08-12T04:07:31;3.08;;;2.08;;
17650;SDS011;26663;59.302;18.082;2023-08-12T04:10:36;2.40;;;2.17;;
17650;SDS011;26663;59.302;18.082;2023-08-12T04:13:41;2.00;;;1.90;;
17650;SDS011;26663;59.302;18.082;2023-08-12T04:16:47;4.32;;;2.35;;
17650;SDS011;26663;59.302;18.082;2023-08-12T04:19:52;3.00;;;2.20;;
17650;SDS011;26663;59.302;18.082;2023-08-12T04:22:55;3.53;;;2.20;;
17650;SDS011;26663;59.302;18.082;2023-08-12T04:25:59;2.03;;;1.90;;
17650;SDS011;26663;59.302;18.082;2023-08-12T04:29:06;4.20;;;2.22;;
17650;SDS011;26663;59.302;18.082;2023-08-12T04:32:13;2.25;;;2.00;;
17650;SDS011;26663;59.302;18.082;2023-08-12T04:35:18;2.00;;;1.90;;
17650;SDS011;26663;59.302;18.082;2023-08-12T04:38:23;2.65;;;1.90;;
17650;SDS011;26663;59.302;18.082;2023-08-12T04:41:30;2.60;;;2.40;;
17650;SDS011;26663;59.302;18.082;2023-08-12T04:44:39;2.08;;;1.88;;
17650;SDS011;26663;59.302;18.082;2023-08-12T04:47:43;2.72;;;2.42;;
17650;SDS011;26663;59.302;18.082;2023-08-12T04:50:50;2.00;;;1.90;;
17650;SDS011;26663;59.302;18.082;2023-08-12T04:53:53;1.80;;;1.80;;
17650;SDS011;26663;59.302;18.082;2023-08-12T04:56:57;2.65;;;1.83;;
17650;SDS011;26663;59.302;18.082;2023-08-12T05:00:03;2.03;;;1.88;;
17650;SDS011;26663;59.302;18.082;2023-08-12T05:03:10;3.63;;;2.13;;
17650;SDS011;26663;59.302;18.082;2023-08-12T05:06:15;1.73;;;1.63;;
17650;SDS011;26663;59.302;18.082;2023-08-12T05:09:20;3.50;;;1.88;;
17650;SDS011;26663;59.302;18.082;2023-08-12T05:12:24;1.70;;;1.65;;
17650;SDS011;26663;59.302;18.082;2023-08-12T05:15:29;2.92;;;1.60;;
17650;SDS011;26663;59.302;18.082;2023-08-12T05:18:34;2.05;;;1.58;;
17650;SDS011;26663;59.302;18.082;2023-08-12T05:21:38;1.70;;;1.60;;
17650;SDS011;26663;59.302;18.082;2023-08-12T05:24:42;1.67;;;1.58;;
17650;SDS011;26663;59.302;18.082;2023-08-12T05:27:46;5.07;;;1.50;;
17650;SDS011;26663;59.302;18.082;2023-08-12T05:30:51;1.45;;;1.40;;
17650;SDS011;26663;59.302;18.082;2023-08-12T05:33:57;3.17;;;1.48;;
17650;SDS011;26663;59.302;18.082;2023-08-12T05:37:01;1.98;;;1.55;;
17650;SDS011;26663;59.302;18.082;2023-08-12T05:40:05;1.70;;;1.40;;
17650;SDS011;26663;59.302;18.082;2023-08-12T05:43:11;1.40;;;1.33;;
17650;SDS011;26663;59.302;18.082;2023-08-12T05:46:16;3.78;;;1.75;;
17650;SDS011;26663;59.302;18.082;2023-08-12T05:49:20;1.65;;;1.55;;
17650;SDS011;26663;59.302;18.082;2023-08-12T05:52:24;2.58;;;1.50;;
17650;SDS011;26663;59.302;18.082;2023-08-12T05:55:28;3.03;;;1.48;;
17650;SDS011;26663;59.302;18.082;2023-08-12T05:58:32;2.47;;;2.28;;
17650;SDS011;26663;59.302;18.082;2023-08-12T06:01:37;1.98;;;1.70;;
17650;SDS011;26663;59.302;18.082;2023-08-12T06:04:41;1.70;;;1.60;;
17650;SDS011;26663;59.302;18.082;2023-08-12T06:07:45;4.50;;;2.28;;
17650;SDS011;26663;59.302;18.082;2023-08-12T06:10:48;4.88;;;2.38;;
17650;SDS011;26663;59.302;18.082;2023-08-12T06:13:52;4.10;;;2.25;;
17650;SDS011;26663;59.302;18.082;2023-08-12T06:16:57;2.08;;;1.77;;
17650;SDS011;26663;59.302;18.082;2023-08-12T06:20:01;2.50;;;2.08;;
17650;SDS011;26663;59.302;18.082;2023-08-12T06:23:05;4.53;;;2.38;;
17650;SDS011;26663;59.302;18.082;2023-08-12T06:26:09;6.75;;;2.63;;
17650;SDS011;26663;59.302;18.082;2023-08-12T06:29:13;2.58;;;2.20;;
17650;SDS011;26663;59.302;18.082;2023-08-12T06:32:18;2.03;;;1.88;;
17650;SDS011;26663;59.302;18.082;2023-08-12T06:35:22;2.92;;;2.17;;
17650;SDS011;26663;59.302;18.082;2023-08-12T06:38:26;4.00;;;2.15;;
17650;SDS011;26663;59.302;18.082;2023-08-12T06:41:30;2.85;;;1.83;;
17650;SDS011;26663;59.302;18.082;2023-08-12T06:44:33;2.65;;;1.70;;
17650;SDS011;26663;59.302;18.082;2023-08-12T06:47:38;1.73;;;1.73;;
17650;SDS011;26663;59.302;18.082;2023-08-12T06:50:42;3.60;;;1.80;;
17650;SDS011;26663;59.302;18.082;2023-08-12T06:53:46;1.48;;;1.48;;
17650;SDS011;26663;59.302;18.082;2023-08-12T06:56:50;1.90;;;1.80;;
17650;SDS011;26663;59.302;18.082;2023-08-12T06:59:54;2.42;;;1.75;;
17650;SDS011;26663;59.302;18.082;2023-08-12T07:02:59;2.17;;;1.98;;
17650;SDS011;26663;59.302;18.082;2023-08-12T07:06:03;2.70;;;1.92;;
17650;SDS011;26663;59.302;18.082;2023-08-12T07:09:07;2.00;;;1.90;;
17650;SDS011;26663;59.302;18.082;2023-08-12T07:12:11;2.90;;;1.90;;
17650;SDS011;26663;59.302;18.082;2023-08-12T07:15:15;3.00;;;1.80;;
17650;SDS011;26663;59.302;18.082;2023-08-12T07:18:20;1.88;;;1.58;;
17650;SDS011;26663;59.302;18.082;2023-08-12T07:21:25;1.63;;;1.30;;
17650;SDS011;26663;59.302;18.082;2023-08-12T07:24:29;2.47;;;2.10;;
17650;SDS011;26663;59.302;18.082;2023-08-12T07:27:33;2.08;;;1.65;;
17650;SDS011;26663;59.302;18.082;2023-08-12T07:30:36;2.25;;;2.03;;
17650;SDS011;26663;59.302;18.082;2023-08-12T07:33:42;2.22;;;2.10;;
17650;SDS011;26663;59.302;18.082;2023-08-12T07:36:45;2.03;;;1.88;;
17650;SDS011;26663;59.302;18.082;2023-08-12T07:39:49;2.83;;;1.95;;
17650;SDS011;26663;59.302;18.082;2023-08-12T07:42:53;2.28;;;1.73;;
17650;SDS011;26663;59.302;18.082;2023-08-12T07:45:57;1.95;;;1.85;;
17650;SDS011;26663;59.302;18.082;2023-08-12T07:49:12;4.07;;;2.17;;
17650;SDS011;26663;59.302;18.082;2023-08-12T07:52:16;2.60;;;1.80;;
17650;SDS011;26663;59.302;18.082;2023-08-12T07:55:20;2.20;;;2.10;;
17650;SDS011;26663;59.302;18.082;2023-08-12T07:58:28;2.58;;;1.90;;
17650;SDS011;26663;59.302;18.082;2023-08-12T08:01:31;2.17;;;1.90;;
17650;SDS011;26663;59.302;18.082;2023-08-12T08:04:40;1.90;;;1.80;;
17650;SDS011;26663;59.302;18.082;2023-08-12T08:07:44;4.40;;;1.65;;
17650;SDS011;26663;59.302;18.082;2023-08-12T08:10:47;3.40;;;1.60;;
17650;SDS011;26663;59.302;18.082;2023-08-12T08:13:51;4.32;;;1.77;;
17650;SDS011;26663;59.302;18.082;2023-08-12T08:16:55;3.67;;;1.80;;
17650;SDS011;26663;59.302;18.082;2023-08-12T08:20:01;4.82;;;1.63;;
17650;SDS011;26663;59.302;18.082;2023-08-12T08:23:07;2.85;;;2.20;;
17650;SDS011;26663;59.302;18.082;2023-08-12T08:26:11;1.98;;;1.80;;
17650;SDS011;26663;59.302;18.082;2023-08-12T08:29:17;3.25;;;1.85;;
17650;SDS011;26663;59.302;18.082;2023-08-12T08:32:22;2.20;;;1.70;;
17650;SDS011;26663;59.302;18.082;2023-08-12T08:35:27;4.47;;;1.90;;
17650;SDS011;26663;59.302;18.082;2023-08-12T08:38:31;2.05;;;1.52;;
17650;SDS011;26663;59.302;18.082;2023-08-12T08:41:36;2.42;;;1.50;;
17650;SDS011;26663;59.302;18.082;2023-08-12T08:44:42;1.90;;;1.70;;
17650;SDS011;26663;59.302;18.082;2023-08-12T08:47:46;2.08;;;1.75;;
17650;SDS011;26663;59.302;18.082;2023-08-12T08:50:51;2.45;;;1.73;;
17650;SDS011;26663;59.302;18.082;2023-08-12T08:53:56;3.30;;;2.15;;
17650;SDS011;26663;59.302;18.082;2023-08-12T08:57:05;1.65;;;1.60;;
17650;SDS011;26663;59.302;18.082;2023-08-12T09:00:26;1.70;;;1.60;;
17650;SDS011;26663;59.302;18.082;2023-08-12T09:03:31;2.20;;;2.00;;
17650;SDS011;26663;59.302;18.082;2023-08-12T09:06:37;1.90;;;1.80;;
17650;SDS011;26663;59.302;18.082;2023-08-12T09:09:44;2.20;;;1.80;;
17650;SDS011;26663;59.302;18.082;2023-08-12T09:12:49;1.83;;;1.50;;
17650;SDS011;26663;59.302;18.082;2023-08-12T09:15:55;1.70;;;1.60;;
17650;SDS011;26663;59.302;18.082;2023-08-12T09:18:59;2.05;;;1.67;;
17650;SDS011;26663;59.302;18.082;2023-08-12T09:22:06;2.58;;;1.95;;
17650;SDS011;26663;59.302;18.082;2023-08-12T09:25:12;1.83;;;1.73;;
17650;SDS011;26663;59.302;18.082;2023-08-12T09:28:16;1.88;;;1.77;;
17650;SDS011;26663;59.302;18.082;2023-08-12T09:31:23;1.70;;;1.60;;
17650;SDS011;26663;59.302;18.082;2023-08-12T09:34:29;1.77;;;1.77;;
17650;SDS011;26663;59.302;18.082;2023-08-12T09:37:34;2.17;;;1.55;;
17650;SDS011;26663;59.302;18.082;2023-08-12T09:40:38;4.43;;;1.70;;
17650;SDS011;26663;59.302;18.082;2023-08-12T09:43:42;2.00;;;1.67;;
17650;SDS011;26663;59.302;18.082;2023-08-12T09:46:46;4.63;;;2.08;;
17650;SDS011;26663;59.302;18.082;2023-08-12T09:49:50;1.58;;;1.48;;
17650;SDS011;26663;59.302;18.082;2023-08-12T09:52:55;3.88;;;1.85;;
17650;SDS011;26663;59.302;18.082;2023-08-12T09:55:59;2.63;;;1.90;;
17650;SDS011;26663;59.302;18.082;2023-08-12T09:59:05;1.58;;;1.50;;
17650;SDS011;26663;59.302;18.082;2023-08-12T10:02:10;1.88;;;1.80;;
17650;SDS011;26663;59.302;18.082;2023-08-12T10:05:21;1.63;;;1.52;;
17650;SDS011;26663;59.302;18.082;2023-08-12T10:08:29;2.40;;;2.20;;
17650;SDS011;26663;59.302;18.082;2023-08-12T10:11:33;1.58;;;1.48;;
17650;SDS011;26663;59.302;18.082;2023-08-12T10:14:38;2.17;;;1.85;;
17650;SDS011;26663;59.302;18.082;2023-08-12T10:17:42;1.73;;;1.63;;
17650;SDS011;26663;59.302;18.082;2023-08-12T10:20:47;2.25;;;2.08;;
17650;SDS011;26663;59.302;18.082;2023-08-12T10:23:52;1.85;;;1.75;;
17650;SDS011;26663;59.302;18.082;2023-08-12T10:26:57;3.05;;;1.88;;
17650;SDS011;26663;59.302;18.082;2023-08-12T10:30:02;1.85;;;1.75;;
17650;SDS011;26663;59.302;18.082;2023-08-12T10:33:07;1.50;;;1.50;;
17650;SDS011;26663;59.302;18.082;2023-08-12T10:36:11;2.28;;;1.80;;
17650;SDS011;26663;59.302;18.082;2023-08-12T10:39:16;1.83;;;1.70;;
17650;SDS011;26663;59.302;18.082;2023-08-12T10:45:46;4.85;;;2.05;;
17650;SDS011;26663;59.302;18.082;2023-08-12T10:49:02;1.48;;;1.48;;
17650;SDS011;26663;59.302;18.082;2023-08-12T10:52:08;1.60;;;1.50;;
17650;SDS011;26663;59.302;18.082;2023-08-12T10:55:30;1.90;;;1.80;;
17650;SDS011;26663;59.302;18.082;2023-08-12T10:58:35;2.88;;;1.55;;
17650;SDS011;26663;59.302;18.082;2023-08-12T11:01:44;1.60;;;1.60;;
17650;SDS011;26663;59.302;18.082;2023-08-12T11:04:57;2.15;;;2.05;;
17650;SDS011;26663;59.302;18.082;2023-08-12T11:08:05;1.92;;;1.77;;
17650;SDS011;26663;59.302;18.082;2023-08-12T11:11:18;2.20;;;1.63;;
17650;SDS011;26663;59.302;18.082;2023-08-12T11:14:23;1.75;;;1.75;;
17650;SDS011;26663;59.302;18.082;2023-08-12T11:17:28;2.00;;;1.70;;
17650;SDS011;26663;59.302;18.082;2023-08-12T11:20:36;2.47;;;2.30;;
17650;SDS011;26663;59.302;18.082;2023-08-12T11:23:40;2.20;;;1.92;;
17650;SDS011;26663;59.302;18.082;2023-08-12T11:26:45;2.08;;;1.88;;
17650;SDS011;26663;59.302;18.082;2023-08-12T11:29:49;3.28;;;1.75;;
17650;SDS011;26663;59.302;18.082;2023-08-12T11:32:54;2.00;;;1.90;;
17650;SDS011;26663;59.302;18.082;2023-08-12T11:35:59;2.20;;;2.10;;
17650;SDS011;26663;59.302;18.082;2023-08-12T11:39:03;1.90;;;1.90;;
17650;SDS011;26663;59.302;18.082;2023-08-12T11:42:08;2.70;;;2.17;;
17650;SDS011;26663;59.302;18.082;2023-08-12T11:45:13;3.00;;;2.40;;
17650;SDS011;26663;59.302;18.082;2023-08-12T11:48:18;2.33;;;2.22;;
17650;SDS011;26663;59.302;18.082;2023-08-12T11:51:23;2.65;;;2.55;;
17650;SDS011;26663;59.302;18.082;2023-08-12T11:54:27;3.03;;;2.20;;
17650;SDS011;26663;59.302;18.082;2023-08-12T11:57:33;2.20;;;2.00;;
17650;SDS011;26663;59.302;18.082;2023-08-12T12:00:37;2.60;;;2.30;;
17650;SDS011;26663;59.302;18.082;2023-08-12T12:03:41;2.22;;;2.10;;
17650;SDS011;26663;59.302;18.082;2023-08-12T12:06:46;2.03;;;2.03;;
17650;SDS011;26663;59.302;18.082;2023-08-12T12:09:50;2.22;;;2.20;;
17650;SDS011;26663;59.302;18.082;2023-08-12T12:12:56;2.22;;;2.17;;
17650;SDS011;26663;59.302;18.082;2023-08-12T12:16:00;2.20;;;2.10;;
17650;SDS011;26663;59.302;18.082;2023-08-12T12:19:04;2.03;;;2.03;;
17650;SDS011;26663;59.302;18.082;2023-08-12T12:22:10;1.92;;;1.90;;
17650;SDS011;26663;59.302;18.082;2023-08-12T12:25:17;2.58;;;2.38;;
17650;SDS011;26663;59.302;18.082;2023-08-12T12:28:23;6.65;;;1.95;;
17650;SDS011;26663;59.302;18.082;2023-08-12T12:31:27;3.08;;;2.75;;
17650;SDS011;26663;59.302;18.082;2023-08-12T12:34:31;2.13;;;2.03;;
17650;SDS011;26663;59.302;18.082;2023-08-12T12:37:35;3.83;;;2.15;;
17650;SDS011;26663;59.302;18.082;2023-08-12T12:40:39;2.88;;;2.38;;
17650;SDS011;26663;59.302;18.082;2023-08-12T12:43:44;2.30;;;2.20;;
17650;SDS011;26663;59.302;18.082;2023-08-12T12:46:49;2.53;;;2.33;;
17650;SDS011;26663;59.302;18.082;2023-08-12T12:49:52;2.80;;;2.70;;
17650;SDS011;26663;59.302;18.082;2023-08-12T12:52:56;3.30;;;2.95;;
17650;SDS011;26663;59.302;18.082;2023-08-12T12:56:00;2.25;;;2.20;;
17650;SDS011;26663;59.302;18.082;2023-08-12T12:59:07;2.95;;;2.60;;
17650;SDS011;26663;59.302;18.082;2023-08-12T13:02:11;2.45;;;2.35;;
17650;SDS011;26663;59.302;18.082;2023-08-12T13:05:15;2.42;;;2.22;;
17650;SDS011;26663;59.302;18.082;2023-08-12T13:08:20;2.42;;;2.33;;
17650;SDS011;26663;59.302;18.082;2023-08-12T13:11:23;3.25;;;2.85;;
17650;SDS011;26663;59.302;18.082;2023-08-12T13:14:29;2.63;;;2.42;;
17650;SDS011;26663;59.302;18.082;2023-08-12T13:17:32;2.03;;;1.98;;
17650;SDS011;26663;59.302;18.082;2023-08-12T13:20:36;3.40;;;2.38;;
17650;SDS011;26663;59.302;18.082;2023-08-12T13:23:40;3.28;;;2.47;;
17650;SDS011;26663;59.302;18.082;2023-08-12T13:26:44;2.88;;;2.15;;
17650;SDS011;26663;59.302;18.082;2023-08-12T13:29:49;2.08;;;1.98;;
17650;SDS011;26663;59.302;18.082;2023-08-12T13:32:53;4.25;;;2.25;;
17650;SDS011;26663;59.302;18.082;2023-08-12T13:35:59;2.65;;;2.45;;
17650;SDS011;26663;59.302;18.082;2023-08-12T13:39:04;3.25;;;2.55;;
17650;SDS011;26663;59.302;18.082;2023-08-12T13:42:07;2.60;;;2.40;;
17650;SDS011;26663;59.302;18.082;2023-08-12T13:45:13;2.13;;;2.03;;
17650;SDS011;26663;59.302;18.082;2023-08-12T13:48:17;1.80;;;1.70;;
17650;SDS011;26663;59.302;18.082;2023-08-12T13:51:21;2.70;;;2.47;;
17650;SDS011;26663;59.302;18.082;2023-08-12T13:54:25;5.07;;;2.15;;
17650;SDS011;26663;59.302;18.082;2023-08-12T13:57:29;2.58;;;2.38;;
17650;SDS011;26663;59.302;18.082;2023-08-12T14:00:34;4.22;;;2.55;;
17650;SDS011;26663;59.302;18.082;2023-08-12T14:03:38;2.05;;;2.05;;
17650;SDS011;26663;59.302;18.082;2023-08-12T14:06:42;3.63;;;2.53;;
17650;SDS011;26663;59.302;18.082;2023-08-12T14:09:46;2.15;;;2.05;;
17650;SDS011;26663;59.302;18.082;2023-08-12T14:12:50;2.33;;;2.25;;
17650;SDS011;26663;59.302;18.082;2023-08-12T14:15:55;2.22;;;2.10;;
17650;SDS011;26663;59.302;18.082;2023-08-12T14:18:59;2.83;;;2.10;;
17650;SDS011;26663;59.302;18.082;2023-08-12T14:22:03;2.75;;;2.40;;
17650;SDS011;26663;59.302;18.082;2023-08-12T14:25:07;2.33;;;2.08;;
17650;SDS011;26663;59.302;18.082;2023-08-12T14:28:12;3.15;;;1.90;;
17650;SDS011;26663;59.302;18.082;2023-08-12T14:31:18;3.80;;;2.05;;
17650;SDS011;26663;59.302;18.082;2023-08-12T14:34:22;1.83;;;1.83;;
17650;SDS011;26663;59.302;18.082;2023-08-12T14:37:26;2.58;;;2.20;;
17650;SDS011;26663;59.302;18.082;2023-08-12T14:40:31;4.07;;;2.33;;
17650;SDS011;26663;59.302;18.082;2023-08-12T14:43:35;2.15;;;2.05;;
17650;SDS011;26663;59.302;18.082;2023-08-12T14:46:40;1.90;;;1.90;;
17650;SDS011;26663;59.302;18.082;2023-08-12T14:49:44;2.47;;;2.28;;
17650;SDS011;26663;59.302;18.082;2023-08-12T14:52:52;1.70;;;1.70;;
17650;SDS011;26663;59.302;18.082;2023-08-12T14:55:56;1.92;;;1.83;;
17650;SDS011;26663;59.302;18.082;2023-08-12T14:59:00;2.40;;;1.77;;
17650;SDS011;26663;59.302;18.082;2023-08-12T15:02:05;2.42;;;1.80;;
17650;SDS011;26663;59.302;18.082;2023-08-12T15:05:09;1.80;;;1.80;;
17650;SDS011;26663;59.302;18.082;2023-08-12T15:08:14;3.03;;;1.90;;
17650;SDS011;26663;59.302;18.082;2023-08-12T15:11:18;2.10;;;1.90;;
17650;SDS011;26663;59.302;18.082;2023-08-12T15:14:21;1.92;;;1.80;;
17650;SDS011;26663;59.302;18.082;2023-08-12T15:17:27;2.05;;;1.80;;
17650;SDS011;26663;59.302;18.082;2023-08-12T15:20:31;1.80;;;1.80;;
17650;SDS011;26663;59.302;18.082;2023-08-12T15:23:35;2.13;;;2.03;;
17650;SDS011;26663;59.302;18.082;2023-08-12T15:26:38;2.05;;;1.95;;
17650;SDS011;26663;59.302;18.082;2023-08-12T15:29:42;2.15;;;2.00;;
17650;SDS011;26663;59.302;18.082;2023-08-12T15:32:47;4.43;;;1.98;;
17650;SDS011;26663;59.302;18.082;2023-08-12T15:35:51;3.80;;;1.83;;
17650;SDS011;26663;59.302;18.082;2023-08-12T15:38:55;2.05;;;1.70;;
17650;SDS011;26663;59.302;18.082;2023-08-12T15:41:59;1.73;;;1.70;;
17650;SDS011;26663;59.302;18.082;2023-08-12T15:45:04;3.22;;;1.73;;
17650;SDS011;26663;59.302;18.082;2023-08-12T15:48:10;2.60;;;2.22;;
17650;SDS011;26663;59.302;18.082;2023-08-12T15:51:14;5.68;;;2.30;;
17650;SDS011;26663;59.302;18.082;2023-08-12T15:54:18;4.72;;;1.90;;
17650;SDS011;26663;59.302;18.082;2023-08-12T15:57:22;1.90;;;1.80;;
17650;SDS011;26663;59.302;18.082;2023-08-12T16:00:26;4.60;;;2.45;;
17650;SDS011;26663;59.302;18.082;2023-08-12T16:03:31;8.57;;;3.42;;
17650;SDS011;26663;59.302;18.082;2023-08-12T16:06:35;4.20;;;3.10;;
17650;SDS011;26663;59.302;18.082;2023-08-12T16:09:39;2.40;;;2.17;;
17650;SDS011;26663;59.302;18.082;2023-08-12T16:12:43;1.52;;;1.52;;
17650;SDS011;26663;59.302;18.082;2023-08-12T16:15:46;1.90;;;1.80;;
17650;SDS011;26663;59.302;18.082;2023-08-12T16:18:52;2.20;;;2.10;;
17650;SDS011;26663;59.302;18.082;2023-08-12T16:21:56;1.90;;;1.80;;
17650;SDS011;26663;59.302;18.082;2023-08-12T16:25:00;2.13;;;2.03;;
17650;SDS011;26663;59.302;18.082;2023-08-12T16:28:04;3.55;;;2.15;;
17650;SDS011;26663;59.302;18.082;2023-08-12T16:31:07;1.80;;;1.80;;
17650;SDS011;26663;59.302;18.082;2023-08-12T16:34:13;6.28;;;2.10;;
17650;SDS011;26663;59.302;18.082;2023-08-12T16:37:17;2.05;;;1.98;;
17650;SDS011;26663;59.302;18.082;2023-08-12T16:40:23;2.75;;;2.17;;
17650;SDS011;26663;59.302;18.082;2023-08-12T16:43:29;4.70;;;1.95;;
17650;SDS011;26663;59.302;18.082;2023-08-12T16:46:35;4.78;;;2.70;;
17650;SDS011;26663;59.302;18.082;2023-08-12T16:49:40;2.30;;;2.17;;
17650;SDS011;26663;59.302;18.082;2023-08-12T16:52:43;2.17;;;2.08;;
17650;SDS011;26663;59.302;18.082;2023-08-12T16:55:48;6.68;;;3.70;;
17650;SDS011;26663;59.302;18.082;2023-08-12T16:58:51;2.40;;;2.30;;
17650;SDS011;26663;59.302;18.082;2023-08-12T17:01:55;1.90;;;1.90;;
17650;SDS011;26663;59.302;18.082;2023-08-12T17:05:00;3.63;;;2.67;;
17650;SDS011;26663;59.302;18.082;2023-08-12T17:08:05;5.68;;;2.50;;
17650;SDS011;26663;59.302;18.082;2023-08-12T17:11:10;2.95;;;2.75;;
17650;SDS011;26663;59.302;18.082;2023-08-12T17:14:14;3.38;;;2.80;;
17650;SDS011;26663;59.302;18.082;2023-08-12T17:17:22;2.80;;;2.70;;
17650;SDS011;26663;59.302;18.082;2023-08-12T17:20:28;2.40;;;2.30;;
17650;SDS011;26663;59.302;18.082;2023-08-12T17:23:32;3.72;;;2.47;;
17650;SDS011;26663;59.302;18.082;2023-08-12T17:26:36;2.10;;;2.00;;
17650;SDS011;26663;59.302;18.082;2023-08-12T17:29:40;3.17;;;2.45;;
17650;SDS011;26663;59.302;18.082;2023-08-12T17:32:44;2.20;;;2.10;;
17650;SDS011;26663;59.302;18.082;2023-08-12T17:35:49;2.00;;;1.90;;
17650;SDS011;26663;59.302;18.082;2023-08-12T17:38:53;2.20;;;1.98;;
17650;SDS011;26663;59.302;18.082;2023-08-12T17:41:57;1.67;;;1.67;;
17650;SDS011;26663;59.302;18.082;2023-08-12T17:45:01;2.55;;;2.40;;
17650;SDS011;26663;59.302;18.082;2023-08-12T17:48:05;2.10;;;2.00;;
17650;SDS011;26663;59.302;18.082;2023-08-12T17:51:11;2.03;;;1.92;;
17650;SDS011;26663;59.302;18.082;2023-08-12T17:54:17;1.83;;;1.73;;
17650;SDS011;26663;59.302;18.082;2023-08-12T17:57:21;2.53;;;2.17;;
17650;SDS011;26663;59.302;18.082;2023-08-12T18:00:25;2.25;;;2.10;;
17650;SDS011;26663;59.302;18.082;2023-08-12T18:03:29;6.20;;;2.10;;
17650;SDS011;26663;59.302;18.082;2023-08-12T18:06:34;2.15;;;2.00;;
17650;SDS011;26663;59.302;18.082;2023-08-12T18:09:38;2.17;;;2.08;;
17650;SDS011;26663;59.302;18.082;2023-08-12T18:12:42;1.80;;;1.80;;
17650;SDS011;26663;59.302;18.082;2023-08-12T18:15:46;2.08;;;1.90;;
17650;SDS011;26663;59.302;18.082;2023-08-12T18:18:50;2.65;;;2.05;;